sensor_id;sensor_type;location;lat;lon;timestamp;P1;durP1;ratioP1;P2;durP2;ratioP2
46505;SDS011;32220;49.808;9.968;2023-01-16T09:34:55;2.37;;;1.50;;
46505;SDS011;32220;49.808;9.968;2023-01-16T09:37:23;3.47;;;1.97;;
46505;SDS011;32220;49.808;9.968;2023-01-16T09:39:50;4.13;;;1.93;;
46505;SDS011;32220;49.808;9.968;2023-01-16T09:42:29;3.43;;;2.10;;
46505;SDS011;32220;49.808;9.968;2023-01-16T09:45:24;2.50;;;1.40;;
46505;SDS011;32220;49.808;9.968;2023-01-16T09:47:55;2.37;;;1.30;;
46505;SDS011;32220;49.808;9.968;2023-01-16T09:50:31;1.70;;;1.10;;
46505;SDS011;32220;49.808;9.968;2023-01-16T09:53:03;2.90;;;1.43;;
46505;SDS011;32220;49.808;9.968;2023-01-16T09:55:55;1.30;;;1.20;;
46505;SDS011;32220;49.808;9.968;2023-01-16T09:58:45;2.60;;;1.20;;
46505;SDS011;32220;49.808;9.968;2023-01-16T10:01:15;2.60;;;1.13;;
46505;SDS011;32220;49.808;9.968;2023-01-16T10:03:48;1.80;;;1.00;;
46505;SDS011;32220;49.808;9.968;2023-01-16T10:06:31;1.57;;;1.30;;
46505;SDS011;32220;49.808;9.968;2023-01-16T10:09:07;1.30;;;1.00;;
46505;SDS011;32220;49.808;9.968;2023-01-16T10:11:45;1.33;;;1.03;;
46505;SDS011;32220;49.808;9.968;2023-01-16T10:14:31;3.13;;;0.90;;
46505;SDS011;32220;49.808;9.968;2023-01-16T10:17:19;3.47;;;1.17;;
46505;SDS011;32220;49.808;9.968;2023-01-16T10:20:00;1.43;;;0.93;;
46505;SDS011;32220;49.808;9.968;2023-01-16T10:22:54;1.00;;;0.90;;
46505;SDS011;32220;49.808;9.968;2023-01-16T10:25:30;1.97;;;1.00;;
46505;SDS011;32220;49.808;9.968;2023-01-16T10:28:05;7.73;;;1.20;;
46505;SDS011;32220;49.808;9.968;2023-01-16T10:30:47;2.97;;;1.00;;
46505;SDS011;32220;49.808;9.968;2023-01-16T10:33:19;1.43;;;0.80;;
46505;SDS011;32220;49.808;9.968;2023-01-16T10:35:55;1.60;;;0.87;;
46505;SDS011;32220;49.808;9.968;2023-01-16T10:38:29;1.23;;;1.00;;
46505;SDS011;32220;49.808;9.968;2023-01-16T10:41:12;1.13;;;1.00;;
46505;SDS011;32220;49.808;9.968;2023-01-16T10:43:57;1.13;;;1.00;;
46505;SDS011;32220;49.808;9.968;2023-01-16T10:46:42;1.50;;;1.00;;
46505;SDS011;32220;49.808;9.968;2023-01-16T10:49:28;1.27;;;1.17;;
46505;SDS011;32220;49.808;9.968;2023-01-16T10:51:56;1.57;;;1.10;;
46505;SDS011;32220;49.808;9.968;2023-01-16T10:54:29;2.57;;;1.03;;
46505;SDS011;32220;49.808;9.968;2023-01-16T10:56:57;3.27;;;1.03;;
46505;SDS011;32220;49.808;9.968;2023-01-16T10:59:29;2.10;;;0.67;;
46505;SDS011;32220;49.808;9.968;2023-01-16T11:02:00;1.33;;;0.80;;
46505;SDS011;32220;49.808;9.968;2023-01-16T11:04:38;0.87;;;0.60;;
46505;SDS011;32220;49.808;9.968;2023-01-16T11:07:13;1.70;;;0.67;;
46505;SDS011;32220;49.808;9.968;2023-01-16T11:09:45;0.97;;;0.50;;
46505;SDS011;32220;49.808;9.968;2023-01-16T11:12:21;0.70;;;0.60;;
46505;SDS011;32220;49.808;9.968;2023-01-16T11:15:12;1.47;;;0.70;;
46505;SDS011;32220;49.808;9.968;2023-01-16T11:18:00;0.63;;;0.63;;
46505;SDS011;32220;49.808;9.968;2023-01-16T11:20:45;1.90;;;0.60;;
46505;SDS011;32220;49.808;9.968;2023-01-16T11:23:17;0.60;;;0.60;;
46505;SDS011;32220;49.808;9.968;2023-01-16T11:25:48;0.90;;;0.80;;
46505;SDS011;32220;49.808;9.968;2023-01-16T11:28:18;0.60;;;0.60;;
46505;SDS011;32220;49.808;9.968;2023-01-16T11:30:48;1.83;;;0.80;;
46505;SDS011;32220;49.808;9.968;2023-01-16T11:33:21;2.00;;;0.60;;
46505;SDS011;32220;49.808;9.968;2023-01-16T11:35:52;0.93;;;0.60;;
46505;SDS011;32220;49.808;9.968;2023-01-16T11:38:21;1.27;;;0.73;;
46505;SDS011;32220;49.808;9.968;2023-01-16T11:40:52;0.90;;;0.70;;
46505;SDS011;32220;49.808;9.968;2023-01-16T11:43:24;2.10;;;0.83;;
46505;SDS011;32220;49.808;9.968;2023-01-16T11:46:21;1.23;;;0.90;;
46505;SDS011;32220;49.808;9.968;2023-01-16T11:48:58;2.20;;;0.63;;
46505;SDS011;32220;49.808;9.968;2023-01-16T11:51:27;0.70;;;0.70;;
46505;SDS011;32220;49.808;9.968;2023-01-16T11:53:57;2.23;;;0.80;;
46505;SDS011;32220;49.808;9.968;2023-01-16T11:59:21;1.00;;;0.83;;
46505;SDS011;32220;49.808;9.968;2023-01-16T12:01:59;0.80;;;0.80;;
46505;SDS011;32220;49.808;9.968;2023-01-16T12:04:46;1.30;;;0.80;;
46505;SDS011;32220;49.808;9.968;2023-01-16T12:07:35;1.00;;;0.80;;
46505;SDS011;32220;49.808;9.968;2023-01-16T12:10:22;0.87;;;0.77;;
46505;SDS011;32220;49.808;9.968;2023-01-16T12:13:02;0.63;;;0.60;;
46505;SDS011;32220;49.808;9.968;2023-01-16T12:15:53;1.63;;;0.73;;
46505;SDS011;32220;49.808;9.968;2023-01-16T12:18:31;3.33;;;0.80;;
46505;SDS011;32220;49.808;9.968;2023-01-16T12:21:08;1.97;;;0.80;;
46505;SDS011;32220;49.808;9.968;2023-01-16T12:26:51;0.50;;;0.50;;
46505;SDS011;32220;49.808;9.968;2023-01-16T12:29:35;1.47;;;0.40;;
46505;SDS011;32220;49.808;9.968;2023-01-16T12:32:19;0.70;;;0.70;;
46505;SDS011;32220;49.808;9.968;2023-01-16T12:37:56;0.80;;;0.70;;
46505;SDS011;32220;49.808;9.968;2023-01-16T12:40:40;0.40;;;0.40;;
46505;SDS011;32220;49.808;9.968;2023-01-16T12:43:42;0.93;;;0.57;;
46505;SDS011;32220;49.808;9.968;2023-01-16T12:46:20;1.13;;;0.83;;
46505;SDS011;32220;49.808;9.968;2023-01-16T12:49:00;0.67;;;0.57;;
46505;SDS011;32220;49.808;9.968;2023-01-16T12:51:37;0.70;;;0.70;;
46505;SDS011;32220;49.808;9.968;2023-01-16T12:57:17;0.97;;;0.70;;
46505;SDS011;32220;49.808;9.968;2023-01-16T12:59:53;2.63;;;0.87;;
46505;SDS011;32220;49.808;9.968;2023-01-16T13:02:29;0.80;;;0.70;;
46505;SDS011;32220;49.808;9.968;2023-01-16T13:05:04;0.50;;;0.50;;
46505;SDS011;32220;49.808;9.968;2023-01-16T13:07:40;0.53;;;0.53;;
46505;SDS011;32220;49.808;9.968;2023-01-16T13:10:13;0.70;;;0.70;;
46505;SDS011;32220;49.808;9.968;2023-01-16T13:13:04;0.70;;;0.70;;
46505;SDS011;32220;49.808;9.968;2023-01-16T13:15:54;1.27;;;0.80;;
46505;SDS011;32220;49.808;9.968;2023-01-16T13:18:31;0.70;;;0.67;;
46505;SDS011;32220;49.808;9.968;2023-01-16T13:21:06;0.93;;;0.73;;
46505;SDS011;32220;49.808;9.968;2023-01-16T13:23:42;0.73;;;0.70;;
46505;SDS011;32220;49.808;9.968;2023-01-16T13:26:15;0.60;;;0.60;;
46505;SDS011;32220;49.808;9.968;2023-01-16T13:28:46;0.57;;;0.53;;
46505;SDS011;32220;49.808;9.968;2023-01-16T13:31:22;1.10;;;0.70;;
46505;SDS011;32220;49.808;9.968;2023-01-16T13:34:01;0.67;;;0.67;;
46505;SDS011;32220;49.808;9.968;2023-01-16T13:39:47;1.10;;;0.67;;
46505;SDS011;32220;49.808;9.968;2023-01-16T13:42:36;0.63;;;0.63;;
46505;SDS011;32220;49.808;9.968;2023-01-16T13:45:15;0.60;;;0.60;;
46505;SDS011;32220;49.808;9.968;2023-01-16T13:48:13;0.60;;;0.60;;
46505;SDS011;32220;49.808;9.968;2023-01-16T13:50:45;0.63;;;0.40;;
46505;SDS011;32220;49.808;9.968;2023-01-16T13:53:18;0.63;;;0.60;;
46505;SDS011;32220;49.808;9.968;2023-01-16T13:55:48;0.83;;;0.70;;
46505;SDS011;32220;49.808;9.968;2023-01-16T13:58:18;0.83;;;0.70;;
46505;SDS011;32220;49.808;9.968;2023-01-16T14:00:55;1.20;;;0.57;;
46505;SDS011;32220;49.808;9.968;2023-01-16T14:03:25;0.60;;;0.60;;
46505;SDS011;32220;49.808;9.968;2023-01-16T14:06:19;0.90;;;0.60;;
46505;SDS011;32220;49.808;9.968;2023-01-16T14:08:49;0.63;;;0.50;;
46505;SDS011;32220;49.808;9.968;2023-01-16T14:11:38;1.27;;;0.70;;
46505;SDS011;32220;49.808;9.968;2023-01-16T14:14:30;0.57;;;0.57;;
46505;SDS011;32220;49.808;9.968;2023-01-16T14:17:17;0.97;;;0.80;;
46505;SDS011;32220;49.808;9.968;2023-01-16T14:19:54;0.70;;;0.70;;
46505;SDS011;32220;49.808;9.968;2023-01-16T14:22:31;0.93;;;0.80;;
46505;SDS011;32220;49.808;9.968;2023-01-16T14:25:20;0.90;;;0.80;;
46505;SDS011;32220;49.808;9.968;2023-01-16T14:27:50;1.33;;;0.80;;
46505;SDS011;32220;49.808;9.968;2023-01-16T14:30:29;0.80;;;0.73;;
46505;SDS011;32220;49.808;9.968;2023-01-16T14:32:59;1.67;;;0.97;;
46505;SDS011;32220;49.808;9.968;2023-01-16T14:35:41;1.90;;;0.83;;
46505;SDS011;32220;49.808;9.968;2023-01-16T14:38:14;0.70;;;0.70;;
46505;SDS011;32220;49.808;9.968;2023-01-16T14:40:49;0.90;;;0.77;;
46505;SDS011;32220;49.808;9.968;2023-01-16T14:43:37;1.30;;;0.80;;
46505;SDS011;32220;49.808;9.968;2023-01-16T14:46:49;0.80;;;0.80;;
46505;SDS011;32220;49.808;9.968;2023-01-16T14:49:39;1.00;;;0.90;;
46505;SDS011;32220;49.808;9.968;2023-01-16T14:52:41;1.47;;;0.90;;
46505;SDS011;32220;49.808;9.968;2023-01-16T14:55:33;0.83;;;0.60;;
46505;SDS011;32220;49.808;9.968;2023-01-16T14:58:12;0.77;;;0.73;;
46505;SDS011;32220;49.808;9.968;2023-01-16T15:00:43;1.20;;;0.70;;
46505;SDS011;32220;49.808;9.968;2023-01-16T15:03:12;0.67;;;0.50;;
46505;SDS011;32220;49.808;9.968;2023-01-16T15:05:45;0.80;;;0.80;;
46505;SDS011;32220;49.808;9.968;2023-01-16T15:08:21;0.83;;;0.83;;
46505;SDS011;32220;49.808;9.968;2023-01-16T15:10:54;2.07;;;1.10;;
46505;SDS011;32220;49.808;9.968;2023-01-16T15:13:24;1.17;;;0.80;;
46505;SDS011;32220;49.808;9.968;2023-01-16T15:15:54;0.77;;;0.77;;
46505;SDS011;32220;49.808;9.968;2023-01-16T15:18:25;1.17;;;1.00;;
46505;SDS011;32220;49.808;9.968;2023-01-16T15:21:11;1.03;;;0.87;;
46505;SDS011;32220;49.808;9.968;2023-01-16T15:23:58;1.40;;;0.90;;
46505;SDS011;32220;49.808;9.968;2023-01-16T15:29:24;1.00;;;0.90;;
46505;SDS011;32220;49.808;9.968;2023-01-16T15:32:07;2.63;;;1.03;;
46505;SDS011;32220;49.808;9.968;2023-01-16T15:34:44;1.10;;;1.00;;
46505;SDS011;32220;49.808;9.968;2023-01-16T15:37:21;1.43;;;1.23;;
46505;SDS011;32220;49.808;9.968;2023-01-16T15:39:53;2.43;;;1.40;;
46505;SDS011;32220;49.808;9.968;2023-01-16T15:42:23;2.43;;;1.30;;
46505;SDS011;32220;49.808;9.968;2023-01-16T15:45:14;1.47;;;1.37;;
46505;SDS011;32220;49.808;9.968;2023-01-16T15:48:06;1.37;;;1.03;;
46505;SDS011;32220;49.808;9.968;2023-01-16T15:50:43;1.90;;;0.90;;
46505;SDS011;32220;49.808;9.968;2023-01-16T15:53:17;0.90;;;0.70;;
46505;SDS011;32220;49.808;9.968;2023-01-16T15:55:46;1.60;;;0.80;;
46505;SDS011;32220;49.808;9.968;2023-01-16T15:58:18;0.70;;;0.70;;
46505;SDS011;32220;49.808;9.968;2023-01-16T16:00:53;2.00;;;1.00;;
46505;SDS011;32220;49.808;9.968;2023-01-16T16:03:22;0.73;;;0.70;;
46505;SDS011;32220;49.808;9.968;2023-01-16T16:05:55;1.03;;;0.93;;
46505;SDS011;32220;49.808;9.968;2023-01-16T16:08:27;0.83;;;0.70;;
46505;SDS011;32220;49.808;9.968;2023-01-16T16:10:59;1.43;;;1.10;;
46505;SDS011;32220;49.808;9.968;2023-01-16T16:13:49;1.03;;;1.00;;
46505;SDS011;32220;49.808;9.968;2023-01-16T16:16:18;1.90;;;1.13;;
46505;SDS011;32220;49.808;9.968;2023-01-16T16:19:05;0.90;;;0.70;;
46505;SDS011;32220;49.808;9.968;2023-01-16T16:21:34;1.30;;;1.00;;
46505;SDS011;32220;49.808;9.968;2023-01-16T16:24:25;0.80;;;0.70;;
46505;SDS011;32220;49.808;9.968;2023-01-16T16:26:53;0.80;;;0.80;;
46505;SDS011;32220;49.808;9.968;2023-01-16T16:29:22;1.07;;;0.87;;
46505;SDS011;32220;49.808;9.968;2023-01-16T16:31:51;0.60;;;0.60;;
46505;SDS011;32220;49.808;9.968;2023-01-16T16:34:20;1.03;;;0.93;;
46505;SDS011;32220;49.808;9.968;2023-01-16T16:36:50;1.63;;;0.70;;
